createdAt,value
2019-05-15T00:03:53.048Z,9.70
2019-05-15T00:07:59.294Z,9.60
2019-05-15T00:12:04.051Z,9.50
2019-05-15T00:16:08.722Z,9.50
2019-05-15T00:20:13.350Z,8.80
2019-05-15T00:24:17.976Z,8.70
2019-05-15T00:28:22.545Z,8.90
2019-05-15T00:32:28.254Z,9.00
2019-05-15T00:36:32.864Z,9.00
2019-05-15T00:40:39.176Z,9.00
2019-05-15T00:44:43.684Z,9.00
2019-05-15T00:48:48.785Z,9.00
2019-05-15T00:52:53.611Z,8.90
2019-05-15T00:56:58.123Z,8.90
2019-05-15T01:01:02.731Z,8.80
2019-05-15T01:05:08.088Z,8.80
2019-05-15T01:09:12.864Z,8.70
2019-05-15T01:13:19.050Z,8.70
2019-05-15T01:17:23.748Z,8.70
2019-05-15T01:21:28.332Z,8.60
2019-05-15T01:25:32.892Z,8.60
2019-05-15T01:29:44.007Z,8.50
2019-05-15T01:33:43.720Z,8.50
2019-05-15T01:37:48.417Z,8.40
2019-05-15T01:41:53.043Z,8.40
2019-05-15T01:45:58.900Z,8.40
2019-05-15T01:50:43.995Z,8.30
2019-05-15T01:56:29.302Z,8.00
2019-05-15T02:00:33.427Z,7.80
2019-05-15T02:04:39.343Z,7.50
2019-05-15T02:08:43.980Z,7.20
2019-05-15T02:15:35.344Z,7.00
2019-05-15T02:19:39.863Z,6.80
2019-05-15T02:23:44.412Z,6.70
2019-05-15T02:27:48.965Z,7.00
2019-05-15T02:36:15.743Z,6.60
2019-05-15T02:40:20.489Z,6.40
2019-05-15T02:44:25.049Z,6.40
2019-05-15T02:48:29.579Z,6.30
2019-05-15T02:52:34.133Z,6.20
2019-05-15T02:56:39.439Z,6.20
2019-05-15T03:00:49.616Z,6.10
2019-05-15T03:04:50.382Z,6.00
2019-05-15T03:08:54.940Z,5.90
2019-05-15T03:13:00.221Z,5.80
2019-05-15T03:17:04.867Z,5.70
2019-05-15T03:21:09.961Z,5.70
2019-05-15T03:25:14.737Z,5.60
2019-05-15T03:29:21.122Z,5.60
2019-05-15T03:33:29.667Z,5.50
2019-05-15T03:37:33.410Z,5.40
2019-05-15T03:41:39.282Z,5.40
2019-05-15T03:45:44.088Z,5.30
2019-05-15T03:50:28.946Z,5.20
2019-05-15T03:57:04.705Z,5.20
2019-05-15T04:01:27.778Z,5.20
2019-05-15T04:05:15.665Z,5.20
2019-05-15T04:09:20.272Z,5.20
2019-05-15T04:13:24.793Z,5.20
2019-05-15T04:17:29.666Z,5.20
2019-05-15T04:21:34.292Z,5.20
2019-05-15T04:25:39.504Z,5.20
2019-05-15T04:31:50.796Z,5.30
2019-05-15T04:35:40.740Z,5.40
2019-05-15T04:39:48.958Z,5.50
2019-05-15T04:43:52.194Z,5.70
2019-05-15T04:47:58.792Z,6.30
2019-05-15T04:52:03.877Z,6.80
2019-05-15T04:56:09.394Z,8.30
2019-05-15T05:00:14.764Z,10.20
2019-05-15T05:04:19.272Z,11.60
2019-05-15T05:12:19.334Z,12.10
2019-05-15T05:16:24.067Z,13.00
2019-05-15T05:20:28.869Z,13.00
2019-05-15T05:24:33.445Z,12.90
2019-05-15T05:28:38.144Z,12.80
2019-05-15T05:32:43.469Z,12.40
2019-05-15T05:36:48.097Z,11.90
2019-05-15T05:40:52.706Z,11.20
2019-05-15T05:44:58.223Z,11.00
2019-05-15T05:49:02.954Z,10.70
2019-05-15T05:53:08.818Z,10.40
2019-05-15T05:57:13.604Z,10.20
2019-05-15T06:01:18.808Z,10.00
2019-05-15T06:05:23.549Z,9.80
2019-05-15T06:09:28.104Z,9.60
2019-05-15T06:13:33.120Z,9.30
2019-05-15T06:21:39.211Z,9.20
2019-05-15T06:25:43.116Z,9.20
2019-05-15T06:29:48.475Z,9.60
2019-05-15T06:41:41.176Z,14.20
2019-05-15T06:45:48.471Z,15.80
2019-05-15T06:50:42.767Z,17.20
2019-05-15T06:54:48.484Z,18.50
2019-05-15T06:58:53.265Z,19.50
2019-05-15T07:02:58.384Z,19.90
2019-05-15T07:07:03.039Z,20.50
2019-05-15T07:11:08.708Z,22.10
2019-05-15T07:15:14.148Z,22.10
2019-05-15T07:19:19.160Z,22.50
2019-05-15T07:23:27.125Z,22.80
2019-05-15T07:27:30.195Z,23.10
2019-05-15T07:31:34.709Z,23.20
2019-05-15T07:35:39.254Z,23.40
2019-05-15T07:39:43.832Z,22.80
2019-05-15T07:43:49.443Z,22.70
2019-05-15T07:47:54.169Z,22.80
2019-05-15T07:51:59.298Z,24.10
2019-05-15T07:56:04.029Z,24.50
2019-05-15T08:00:10.973Z,24.50
2019-05-15T08:04:26.083Z,24.10
2019-05-15T08:08:21.648Z,23.80
2019-05-15T08:12:28.324Z,23.50
2019-05-15T08:16:32.404Z,23.40
2019-05-15T08:20:38.532Z,23.40
2019-05-15T08:24:43.193Z,23.50
2019-05-15T08:28:48.774Z,23.70
2019-05-15T08:32:53.481Z,23.50
2019-05-15T08:36:59.027Z,23.30
2019-05-15T08:41:03.784Z,23.00
2019-05-15T08:45:09.459Z,22.50
2019-05-15T08:49:13.937Z,22.20
2019-05-15T08:53:19.344Z,22.00
2019-05-15T08:57:24.326Z,21.60
2019-05-15T09:01:28.930Z,21.50
2019-05-15T09:05:33.489Z,21.10
2019-05-15T09:09:38.416Z,20.50
2019-05-15T09:13:44.407Z,19.70
2019-05-15T09:17:49.188Z,19.10
2019-05-15T09:21:53.730Z,18.60
2019-05-15T09:25:58.272Z,18.10
2019-05-15T09:30:02.812Z,17.70
2019-05-15T09:34:09.092Z,17.40
2019-05-15T09:38:13.512Z,17.10
2019-05-15T09:42:18.186Z,16.90
2019-05-15T09:46:22.722Z,16.70
2019-05-15T09:50:28.188Z,16.60
2019-05-15T09:54:32.853Z,16.60
2019-05-15T09:58:38.137Z,16.50
2019-05-15T10:02:43.044Z,16.40
2019-05-15T10:06:48.561Z,16.40
2019-05-15T10:10:53.336Z,16.30
2019-05-15T10:14:59.259Z,16.20
2019-05-15T10:19:03.886Z,16.20
2019-05-15T10:23:08.903Z,16.20
2019-05-15T10:27:13.570Z,16.30
2019-05-15T10:31:19.609Z,16.30
2019-05-15T10:35:28.700Z,16.30
2019-05-15T10:39:30.746Z,16.30
2019-05-15T10:43:35.337Z,16.10
2019-05-15T10:47:39.876Z,16.10
2019-05-15T10:51:44.419Z,16.10
2019-05-15T10:55:49.491Z,16.10
2019-05-15T10:59:54.400Z,16.10
2019-05-15T11:03:59.057Z,16.10
2019-05-15T11:09:25.057Z,16.00
2019-05-15T11:13:29.600Z,16.10
2019-05-15T11:17:34.195Z,16.00
2019-05-15T11:21:38.736Z,16.00
2019-05-15T11:25:43.333Z,16.10
2019-05-15T11:29:47.868Z,16.20
2019-05-15T11:33:52.492Z,16.20
2019-05-15T11:37:57.266Z,16.20
2019-05-15T11:42:01.931Z,16.20
2019-05-15T11:46:06.430Z,16.20
2019-05-15T11:50:11.782Z,16.20
2019-05-15T11:54:18.895Z,16.20
2019-05-15T11:58:22.508Z,16.20
2019-05-15T12:02:29.325Z,16.20
2019-05-15T12:06:33.209Z,16.20
2019-05-15T12:10:38.851Z,16.20
2019-05-15T12:14:43.589Z,16.30
2019-05-15T12:18:48.421Z,16.30
2019-05-15T12:22:53.106Z,16.30
2019-05-15T12:27:11.982Z,16.30
2019-05-15T12:31:03.790Z,16.40
2019-05-15T12:35:08.630Z,16.50
2019-05-15T12:39:13.931Z,16.70
2019-05-15T13:02:49.217Z,17.40
2019-05-15T13:07:10.438Z,17.40
2019-05-15T13:10:59.676Z,17.30
2019-05-15T13:15:04.657Z,17.30
2019-05-15T13:19:09.205Z,17.10
2019-05-15T13:23:13.789Z,17.00
2019-05-15T13:27:18.511Z,17.00
2019-05-15T13:31:23.021Z,17.10
2019-05-15T13:35:28.463Z,17.20
2019-05-15T13:39:33.501Z,17.30
2019-05-15T13:43:38.497Z,17.30
2019-05-15T13:47:43.191Z,17.30
2019-05-15T13:51:48.859Z,17.30
2019-05-15T13:55:53.581Z,17.30
2019-05-15T13:59:58.926Z,17.30
2019-05-15T14:04:03.644Z,17.30
2019-05-15T14:08:08.181Z,17.30
2019-05-15T14:12:13.219Z,17.30
2019-05-15T14:16:19.273Z,17.30
2019-05-15T14:20:23.985Z,17.30
2019-05-15T14:24:28.545Z,17.40
2019-05-15T14:28:33.075Z,17.40
2019-05-15T14:32:39.165Z,17.40
2019-05-15T14:36:44.135Z,17.30
2019-05-15T14:40:48.668Z,17.20
2019-05-15T14:44:53.206Z,17.20
2019-05-15T14:48:58.280Z,17.20
2019-05-15T14:53:02.977Z,17.30
2019-05-15T14:57:08.678Z,17.40
2019-05-15T15:01:13.493Z,17.40
2019-05-15T15:09:08.608Z,17.40
2019-05-15T15:13:13.124Z,17.40
2019-05-15T15:17:19.619Z,17.40
2019-05-15T15:21:23.833Z,17.40
2019-05-15T15:25:28.381Z,17.30
2019-05-15T15:38:40.089Z,17.00
2019-05-15T15:42:39.580Z,16.80
2019-05-15T15:46:43.230Z,16.70
2019-05-15T15:50:49.448Z,16.60
2019-05-15T15:54:54.046Z,16.60
2019-05-15T15:58:59.488Z,16.50
2019-05-15T16:03:04.040Z,16.40
2019-05-15T16:07:09.619Z,16.40
2019-05-15T16:11:14.353Z,16.40
2019-05-15T16:15:18.893Z,16.40
2019-05-15T16:20:54.619Z,16.30
2019-05-15T16:25:02.412Z,16.30
2019-05-15T16:29:05.374Z,16.20
2019-05-15T16:33:10.060Z,16.20
2019-05-15T16:37:14.618Z,16.10
2019-05-15T16:41:19.401Z,16.10
2019-05-15T16:45:23.944Z,16.10
2019-05-15T16:49:28.790Z,16.10
2019-05-15T16:53:33.301Z,16.30
2019-05-15T16:57:38.646Z,16.30
2019-05-15T17:01:43.565Z,16.20
2019-05-15T17:05:48.135Z,16.30
2019-05-15T17:09:52.672Z,16.30
2019-05-15T17:16:04.316Z,16.20
2019-05-15T17:20:10.029Z,16.30
2019-05-15T17:24:14.876Z,16.30
2019-05-15T17:28:19.444Z,16.30
2019-05-15T17:32:23.992Z,16.40
2019-05-15T17:36:31.895Z,16.40
2019-05-15T17:40:34.756Z,16.40
2019-05-15T17:44:39.260Z,16.40
2019-05-15T17:51:38.461Z,16.40
2019-05-15T17:55:43.072Z,16.40
2019-05-15T17:59:48.596Z,16.30
2019-05-15T18:03:53.240Z,16.30
2019-05-15T18:07:58.403Z,16.20
2019-05-15T18:12:03.123Z,16.10
2019-05-15T18:16:13.098Z,16.10
2019-05-15T18:20:15.358Z,16.00
2019-05-15T18:24:19.904Z,15.80
2019-05-15T18:28:24.445Z,15.80
2019-05-15T18:32:29.008Z,15.60
2019-05-15T18:36:33.546Z,15.60
2019-05-15T18:40:38.518Z,15.40
2019-05-15T18:44:43.477Z,15.30
2019-05-15T18:48:48.568Z,15.20
2019-05-15T18:52:53.269Z,15.30
2019-05-15T18:56:58.431Z,15.10
2019-05-15T19:01:03.299Z,15.00
2019-05-15T19:05:08.295Z,14.90
2019-05-15T19:09:13.000Z,14.90
2019-05-15T19:13:17.548Z,14.70
2019-05-15T19:17:22.092Z,14.60
2019-05-15T19:21:27.800Z,14.50
2019-05-15T19:25:32.397Z,14.50
2019-05-15T19:29:37.826Z,14.70
2019-05-15T19:33:42.532Z,14.80
2019-05-15T19:37:48.913Z,14.50
2019-05-15T19:41:53.355Z,14.40
2019-05-15T19:45:58.449Z,14.20
2019-05-15T19:50:03.200Z,14.10
2019-05-15T19:54:09.170Z,14.00
2019-05-15T19:58:14.031Z,13.90
2019-05-15T20:02:18.525Z,13.90
2019-05-15T20:06:23.068Z,13.80
2019-05-15T20:10:29.272Z,14.10
2019-05-15T20:14:34.194Z,13.80
2019-05-15T20:18:38.942Z,13.80
2019-05-15T20:22:43.474Z,13.60
2019-05-15T20:26:48.571Z,13.90
2019-05-15T20:30:53.497Z,14.10
2019-05-15T20:34:58.058Z,14.10
2019-05-15T20:39:02.621Z,14.20
2019-05-15T20:43:08.216Z,14.20
2019-05-15T20:47:13.038Z,14.20
2019-05-15T20:51:18.569Z,14.20
2019-05-15T20:55:23.360Z,14.20
2019-05-15T20:59:27.919Z,14.20
2019-05-15T21:03:32.479Z,14.20
2019-05-15T21:07:40.074Z,14.20
2019-05-15T21:11:43.240Z,14.20
2019-05-15T21:15:48.447Z,14.20
2019-05-15T21:19:53.222Z,14.10
2019-05-15T21:23:58.033Z,14.10
2019-05-15T21:28:04.084Z,14.10
2019-05-15T21:32:08.675Z,14.10
2019-05-15T21:36:13.639Z,14.10
2019-05-15T21:40:18.299Z,14.10
2019-05-15T21:44:23.253Z,14.10
2019-05-15T21:48:28.749Z,14.10
2019-05-15T21:52:33.464Z,14.00
2019-05-15T21:56:38.614Z,14.00
2019-05-15T22:00:48.464Z,13.90
2019-05-15T22:04:56.059Z,13.90
2019-05-15T22:08:59.488Z,13.90
2019-05-15T22:13:05.132Z,13.90
2019-05-15T22:17:09.684Z,13.80
2019-05-15T22:21:14.233Z,13.70
2019-05-15T22:25:19.226Z,13.70
2019-05-15T22:29:23.915Z,13.60
2019-05-15T22:33:28.569Z,13.60
2019-05-15T22:37:33.175Z,13.60
2019-05-15T22:41:38.898Z,13.50
2019-05-15T22:45:43.565Z,13.50
2019-05-15T22:49:48.518Z,13.50
2019-05-15T22:53:53.122Z,13.40
2019-05-15T22:57:58.627Z,13.00
2019-05-15T23:02:03.871Z,12.70
2019-05-15T23:06:08.423Z,12.50
2019-05-15T23:10:13.842Z,12.30
2019-05-15T23:14:18.399Z,12.20
2019-05-15T23:18:22.949Z,12.10
2019-05-15T23:22:27.892Z,12.00
2019-05-15T23:26:32.665Z,11.90
2019-05-15T23:30:37.177Z,11.80
2019-05-15T23:34:41.734Z,11.80
2019-05-15T23:38:47.973Z,11.70
2019-05-15T23:42:52.521Z,11.70
2019-05-15T23:50:54.916Z,11.50
2019-05-15T23:54:59.476Z,11.50
2019-05-15T23:59:04.027Z,11.40
